PWSweather.com
Personal Weather Stations
Station Observations
LARS0103
Helmstedt, SuepplingenDE 38373

HelmstedtSuepplingenDE 38373

Lat: 52.22, Lon: 10.917

Elevation: 110

Station Type: Davis Ventage Vue

Latest ConditionsUpdated 6:23:44 AM GMT+01:01 Thursday, Jun 27, 2019
Currently Today's Max Today's Min Today's Average
Temperature 58.3°F14.6°C 63.3°F17.4°C 57.2°F14.0°C 59.5°F15.3°C
Dew Point 51.1°F10.6°C 55.9°F13.3°C 51.1°F10.6°C 53.5°F11.9°C
Winds 1.1 mph WNW1.8 kmh WNW 2.2 mph -3.5 kmh - - 0.7 mph 1.1 kmh
Wind Gusts 1.8 mph2.9 kmh 5.6 mph9.0 kmh - -
Humidity 77% 83% 77% 81%
Pressure 30.36 in1028.1 mb 30.37 in1028.4 mb 30.35 in1027.8 mb -
Hour Temp Dew Point Humidity Winds Wind Gusts Pressure Precip Precip Rate Daily Precip Total
06:23 AM 58.3°F14.6°C 51.1°F10.6°C 77% 1.1 mph WNW1.8 kmh WNW 1.8 mph2.9 kmh 30.36 in1028.1 mb 0.00 in0.0 mm 0.00 in0.0 mm 0.00 in0.0 mm
06:22 AM 58.3°F14.6°C 51.1°F10.6°C 77% 1.1 mph WNW1.8 kmh WNW 1.8 mph2.9 kmh 30.36 in1028.1 mb 0.00 in0.0 mm 0.00 in0.0 mm 0.00 in0.0 mm
06:21 AM 58.3°F14.6°C 51.4°F10.8°C 78% 1.1 mph NNW1.8 kmh NNW -- 30.36 in1028.1 mb 0.00 in0.0 mm 0.00 in0.0 mm 0.00 in0.0 mm
06:20 AM 58.3°F14.6°C 51.4°F10.8°C 78% 1.1 mph NNW1.8 kmh NNW -- 30.36 in1028.1 mb 0.00 in0.0 mm 0.00 in0.0 mm 0.00 in0.0 mm
06:19 AM 58.3°F14.6°C 51.4°F10.8°C 78% 1.3 mph SW2.1 kmh SW -- 30.36 in1028.1 mb 0.00 in0.0 mm 0.00 in0.0 mm 0.00 in0.0 mm
06:18 AM 58.3°F14.6°C 51.4°F10.8°C 78% 1.3 mph SW2.1 kmh SW -- 30.36 in1028.1 mb 0.00 in0.0 mm 0.00 in0.0 mm 0.00 in0.0 mm
06:17 AM 58.3°F14.6°C 51.4°F10.8°C 78% 1.1 mph WNW1.8 kmh WNW 2.2 mph3.5 kmh 30.36 in1028.1 mb 0.00 in0.0 mm 0.00 in0.0 mm 0.00 in0.0 mm
06:16 AM 58.3°F14.6°C 51.4°F10.8°C 78% 1.1 mph WNW1.8 kmh WNW 2.2 mph3.5 kmh 30.36 in1028.1 mb 0.00 in0.0 mm 0.00 in0.0 mm 0.00 in0.0 mm
06:14 AM 58.3°F14.6°C 51.4°F10.8°C 78% 1.3 mph NNW2.1 kmh NNW 5.4 mph8.7 kmh 30.36 in1028.1 mb 0.00 in0.0 mm 0.00 in0.0 mm 0.00 in0.0 mm
06:13 AM 58.3°F14.6°C 51.4°F10.8°C 78% 1.3 mph ESE2.1 kmh ESE 3.4 mph5.5 kmh 30.36 in1028.1 mb 0.00 in0.0 mm 0.00 in0.0 mm 0.00 in0.0 mm
06:12 AM 58.3°F14.6°C 51.4°F10.8°C 78% 1.3 mph ESE2.1 kmh ESE 3.4 mph5.5 kmh 30.36 in1028.1 mb 0.00 in0.0 mm 0.00 in0.0 mm 0.00 in0.0 mm
06:11 AM 58.3°F14.6°C 51.4°F10.8°C 78% 1.1 mph NW1.8 kmh NW -- 30.36 in1028.1 mb 0.00 in0.0 mm 0.00 in0.0 mm 0.00 in0.0 mm
06:10 AM 58.3°F14.6°C 51.4°F10.8°C 78% 1.1 mph NW1.8 kmh NW -- 30.36 in1028.1 mb 0.00 in0.0 mm 0.00 in0.0 mm 0.00 in0.0 mm
06:09 AM 58.5°F14.7°C 51.6°F10.9°C 78% 1.1 mph 1.8 kmh 4.7 mph7.6 kmh 30.36 in1028.1 mb 0.00 in0.0 mm 0.00 in0.0 mm 0.00 in0.0 mm
06:08 AM 58.5°F14.7°C 51.6°F10.9°C 78% 1.1 mph 1.8 kmh 4.7 mph7.6 kmh 30.36 in1028.1 mb 0.00 in0.0 mm 0.00 in0.0 mm 0.00 in0.0 mm
06:07 AM 58.3°F14.6°C 51.4°F10.8°C 78% 1.1 mph NNE1.8 kmh NNE -- 30.36 in1028.1 mb 0.00 in0.0 mm 0.00 in0.0 mm 0.00 in0.0 mm
06:06 AM 58.3°F14.6°C 51.4°F10.8°C 78% 1.1 mph NNE1.8 kmh NNE -- 30.36 in1028.1 mb 0.00 in0.0 mm 0.00 in0.0 mm 0.00 in0.0 mm
06:05 AM 58.5°F14.7°C 51.6°F10.9°C 78% 1.1 mph S1.8 kmh S 1.3 mph2.1 kmh 30.36 in1028.1 mb 0.00 in0.0 mm 0.00 in0.0 mm 0.00 in0.0 mm
06:03 AM 58.5°F14.7°C 51.6°F10.9°C 78% 0.9 mph SW1.4 kmh SW 5.6 mph9.0 kmh 30.36 in1028.1 mb 0.00 in0.0 mm 0.00 in0.0 mm 0.00 in0.0 mm
06:02 AM 58.5°F14.7°C 52.0°F11.1°C 79% 0.9 mph SW1.4 kmh SW 5.6 mph9.0 kmh 30.36 in1028.1 mb 0.00 in0.0 mm 0.00 in0.0 mm 0.00 in0.0 mm
06:01 AM 58.5°F14.7°C 52.0°F11.1°C 79% 1.1 mph S1.8 kmh S -- 30.36 in1028.1 mb 0.00 in0.0 mm 0.00 in0.0 mm 0.00 in0.0 mm
06:00 AM 58.5°F14.7°C 52.0°F11.1°C 79% 1.1 mph S1.8 kmh S -- 30.36 in1028.1 mb 0.00 in0.0 mm 0.00 in0.0 mm 0.00 in0.0 mm
05:59 AM 58.3°F14.6°C 51.8°F11.0°C 79% 1.1 mph E1.8 kmh E 3.6 mph5.8 kmh 30.36 in1028.1 mb 0.00 in0.0 mm 0.00 in0.0 mm 0.00 in0.0 mm
05:58 AM 58.3°F14.6°C 51.8°F11.0°C 79% 1.1 mph E1.8 kmh E 3.6 mph5.8 kmh 30.36 in1028.1 mb 0.00 in0.0 mm 0.00 in0.0 mm 0.00 in0.0 mm
05:57 AM 58.5°F14.7°C 52.3°F11.3°C 80% 1.1 mph NW1.8 kmh NW 2.2 mph3.5 kmh 30.36 in1028.1 mb 0.00 in0.0 mm 0.00 in0.0 mm 0.00 in0.0 mm
05:56 AM 58.5°F14.7°C 52.3°F11.3°C 80% 1.1 mph NW1.8 kmh NW 2.2 mph3.5 kmh 30.36 in1028.1 mb 0.00 in0.0 mm 0.00 in0.0 mm 0.00 in0.0 mm
05:55 AM 58.3°F14.6°C 52.2°F11.2°C 80% 1.1 mph SE1.8 kmh SE 1.8 mph2.9 kmh 30.36 in1028.1 mb 0.00 in0.0 mm 0.00 in0.0 mm 0.00 in0.0 mm
05:54 AM 58.3°F14.6°C 52.2°F11.2°C 80% 1.1 mph SE1.8 kmh SE 1.8 mph2.9 kmh 30.36 in1028.1 mb 0.00 in0.0 mm 0.00 in0.0 mm 0.00 in0.0 mm
05:52 AM 58.3°F14.6°C 52.2°F11.2°C 80% 1.1 mph ESE1.8 kmh ESE 2.2 mph3.5 kmh 30.36 in1028.1 mb 0.00 in0.0 mm 0.00 in0.0 mm 0.00 in0.0 mm
05:51 AM 58.5°F14.7°C 52.3°F11.3°C 80% 1.1 mph ESE1.8 kmh ESE 2.9 mph4.7 kmh 30.36 in1028.1 mb 0.00 in0.0 mm 0.00 in0.0 mm 0.00 in0.0 mm
05:50 AM 58.5°F14.7°C 52.3°F11.3°C 80% 1.1 mph ESE1.8 kmh ESE 2.9 mph4.7 kmh 30.36 in1028.1 mb 0.00 in0.0 mm 0.00 in0.0 mm 0.00 in0.0 mm
05:49 AM 58.5°F14.7°C 52.3°F11.3°C 80% 1.1 mph 1.8 kmh 2.5 mph4.0 kmh 30.36 in1028.1 mb 0.00 in0.0 mm 0.00 in0.0 mm 0.00 in0.0 mm
05:48 AM 58.5°F14.7°C 52.3°F11.3°C 80% 1.1 mph 1.8 kmh 2.5 mph4.0 kmh 30.37 in1028.4 mb 0.00 in0.0 mm 0.00 in0.0 mm 0.00 in0.0 mm
05:47 AM 58.3°F14.6°C 52.2°F11.2°C 80% 1.1 mph WSW1.8 kmh WSW 1.8 mph2.9 kmh 30.37 in1028.4 mb 0.00 in0.0 mm 0.00 in0.0 mm 0.00 in0.0 mm
05:46 AM 58.3°F14.6°C 52.2°F11.2°C 80% 1.1 mph WSW1.8 kmh WSW 1.8 mph2.9 kmh 30.37 in1028.4 mb 0.00 in0.0 mm 0.00 in0.0 mm 0.00 in0.0 mm
05:45 AM 58.1°F14.5°C 52.0°F11.1°C 80% 0.9 mph W1.4 kmh W 3.8 mph6.1 kmh 30.37 in1028.4 mb 0.00 in0.0 mm 0.00 in0.0 mm 0.00 in0.0 mm
05:44 AM 58.1°F14.5°C 52.0°F11.1°C 80% 0.9 mph W1.4 kmh W 3.8 mph6.1 kmh 30.37 in1028.4 mb 0.00 in0.0 mm 0.00 in0.0 mm 0.00 in0.0 mm
05:43 AM 58.1°F14.5°C 52.0°F11.1°C 80% 0.7 mph SE1.1 kmh SE 1.8 mph2.9 kmh 30.37 in1028.4 mb 0.00 in0.0 mm 0.00 in0.0 mm 0.00 in0.0 mm
05:41 AM 58.1°F14.5°C 52.0°F11.1°C 80% 0.7 mph W1.1 kmh W -- 30.37 in1028.4 mb 0.00 in0.0 mm 0.00 in0.0 mm 0.00 in0.0 mm
05:40 AM 57.9°F14.4°C 51.8°F11.0°C 80% 0.7 mph W1.1 kmh W -- 30.37 in1028.4 mb 0.00 in0.0 mm 0.00 in0.0 mm 0.00 in0.0 mm
05:39 AM 57.7°F14.3°C 51.6°F10.9°C 80% 1.1 mph SSW1.8 kmh SSW 2.2 mph3.5 kmh 30.37 in1028.4 mb 0.00 in0.0 mm 0.00 in0.0 mm 0.00 in0.0 mm
05:38 AM 57.7°F14.3°C 51.6°F10.9°C 80% 1.1 mph SSW1.8 kmh SSW 2.2 mph3.5 kmh 30.37 in1028.4 mb 0.00 in0.0 mm 0.00 in0.0 mm 0.00 in0.0 mm
05:37 AM 57.7°F14.3°C 52.0°F11.1°C 81% 1.1 mph W1.8 kmh W 2.0 mph3.2 kmh 30.37 in1028.4 mb 0.00 in0.0 mm 0.00 in0.0 mm 0.00 in0.0 mm
05:36 AM 57.7°F14.3°C 52.0°F11.1°C 81% 1.1 mph W1.8 kmh W 2.0 mph3.2 kmh 30.37 in1028.4 mb 0.00 in0.0 mm 0.00 in0.0 mm 0.00 in0.0 mm
05:35 AM 57.7°F14.3°C 51.6°F10.9°C 80% 1.1 mph NNW1.8 kmh NNW 1.3 mph2.1 kmh 30.37 in1028.4 mb 0.00 in0.0 mm 0.00 in0.0 mm 0.00 in0.0 mm
05:34 AM 57.7°F14.3°C 51.6°F10.9°C 80% 1.1 mph NNW1.8 kmh NNW 1.3 mph2.1 kmh 30.37 in1028.4 mb 0.00 in0.0 mm 0.00 in0.0 mm 0.00 in0.0 mm
05:33 AM 57.7°F14.3°C 51.6°F10.9°C 80% 1.1 mph NNW1.8 kmh NNW -- 30.37 in1028.4 mb 0.00 in0.0 mm 0.00 in0.0 mm 0.00 in0.0 mm
05:32 AM 57.7°F14.3°C 51.6°F10.9°C 80% 1.1 mph NNW1.8 kmh NNW -- 30.37 in1028.4 mb 0.00 in0.0 mm 0.00 in0.0 mm 0.00 in0.0 mm
05:30 AM 57.9°F14.4°C 52.2°F11.2°C 81% 1.6 mph SW2.6 kmh SW 2.2 mph3.5 kmh 30.37 in1028.4 mb 0.00 in0.0 mm 0.00 in0.0 mm 0.00 in0.0 mm
05:29 AM 57.7°F14.3°C 52.0°F11.1°C 81% 1.6 mph NW2.6 kmh NW 3.6 mph5.8 kmh 30.37 in1028.4 mb 0.00 in0.0 mm 0.00 in0.0 mm 0.00 in0.0 mm
05:28 AM 57.7°F14.3°C 52.0°F11.1°C 81% 1.6 mph NW2.6 kmh NW 3.6 mph5.8 kmh 30.36 in1028.1 mb 0.00 in0.0 mm 0.00 in0.0 mm 0.00 in0.0 mm
05:27 AM 57.7°F14.3°C 52.0°F11.1°C 81% 1.3 mph WSW2.1 kmh WSW 2.0 mph3.2 kmh 30.36 in1028.1 mb 0.00 in0.0 mm 0.00 in0.0 mm 0.00 in0.0 mm
05:26 AM 57.7°F14.3°C 52.0°F11.1°C 81% 1.3 mph WSW2.1 kmh WSW 2.0 mph3.2 kmh 30.36 in1028.1 mb 0.00 in0.0 mm 0.00 in0.0 mm 0.00 in0.0 mm
05:25 AM 57.7°F14.3°C 52.0°F11.1°C 81% 1.3 mph SSE2.1 kmh SSE 2.9 mph4.7 kmh 30.36 in1028.1 mb 0.00 in0.0 mm 0.00 in0.0 mm 0.00 in0.0 mm
05:24 AM 57.7°F14.3°C 52.0°F11.1°C 81% 1.3 mph SSE2.1 kmh SSE 2.9 mph4.7 kmh 30.36 in1028.1 mb 0.00 in0.0 mm 0.00 in0.0 mm 0.00 in0.0 mm
05:23 AM 57.6°F14.2°C 51.8°F11.0°C 81% 1.3 mph SE2.1 kmh SE 2.7 mph4.3 kmh 30.36 in1028.1 mb 0.00 in0.0 mm 0.00 in0.0 mm 0.00 in0.0 mm
05:22 AM 57.6°F14.2°C 51.8°F11.0°C 81% 1.3 mph SE2.1 kmh SE 2.7 mph4.3 kmh 30.36 in1028.1 mb 0.00 in0.0 mm 0.00 in0.0 mm 0.00 in0.0 mm
05:21 AM 57.7°F14.3°C 52.0°F11.1°C 81% 1.1 mph NNW1.8 kmh NNW 2.0 mph3.2 kmh 30.36 in1028.1 mb 0.00 in0.0 mm 0.00 in0.0 mm 0.00 in0.0 mm
05:19 AM 57.7°F14.3°C 52.0°F11.1°C 81% 0.7 mph ESE1.1 kmh ESE 2.9 mph4.7 kmh 30.36 in1028.1 mb 0.00 in0.0 mm 0.00 in0.0 mm 0.00 in0.0 mm
05:18 AM 57.7°F14.3°C 52.3°F11.3°C 82% 0.7 mph ESE1.1 kmh ESE 2.9 mph4.7 kmh 30.36 in1028.1 mb 0.00 in0.0 mm 0.00 in0.0 mm 0.00 in0.0 mm
05:17 AM 57.7°F14.3°C 52.3°F11.3°C 82% 0.7 mph SW1.1 kmh SW 3.1 mph5.0 kmh 30.36 in1028.1 mb 0.00 in0.0 mm 0.00 in0.0 mm 0.00 in0.0 mm
05:16 AM 57.7°F14.3°C 52.3°F11.3°C 82% 0.7 mph SW1.1 kmh SW 3.1 mph5.0 kmh 30.36 in1028.1 mb 0.00 in0.0 mm 0.00 in0.0 mm 0.00 in0.0 mm
05:15 AM 57.6°F14.2°C 52.2°F11.2°C 82% 0.7 mph NW1.1 kmh NW 2.2 mph3.5 kmh 30.36 in1028.1 mb 0.00 in0.0 mm 0.00 in0.0 mm 0.00 in0.0 mm
05:14 AM 57.6°F14.2°C 52.2°F11.2°C 82% 0.7 mph NW1.1 kmh NW 2.2 mph3.5 kmh 30.36 in1028.1 mb 0.00 in0.0 mm 0.00 in0.0 mm 0.00 in0.0 mm
05:13 AM 57.4°F14.1°C 52.0°F11.1°C 82% 0.4 mph S0.6 kmh S -- 30.36 in1028.1 mb 0.00 in0.0 mm 0.00 in0.0 mm 0.00 in0.0 mm
05:12 AM 57.4°F14.1°C 52.0°F11.1°C 82% 0.4 mph S0.6 kmh S -- 30.36 in1028.1 mb 0.00 in0.0 mm 0.00 in0.0 mm 0.00 in0.0 mm
05:11 AM 57.2°F14.0°C 51.8°F11.0°C 82% 0.7 mph ENE1.1 kmh ENE 2.2 mph3.5 kmh 30.36 in1028.1 mb 0.00 in0.0 mm 0.00 in0.0 mm 0.00 in0.0 mm
05:10 AM 57.2°F14.0°C 51.8°F11.0°C 82% 0.7 mph ENE1.1 kmh ENE 2.2 mph3.5 kmh 30.36 in1028.1 mb 0.00 in0.0 mm 0.00 in0.0 mm 0.00 in0.0 mm
05:08 AM 57.2°F14.0°C 51.8°F11.0°C 82% 0.7 mph WSW1.1 kmh WSW -- 30.36 in1028.1 mb 0.00 in0.0 mm 0.00 in0.0 mm 0.00 in0.0 mm
05:07 AM 57.2°F14.0°C 51.8°F11.0°C 82% 0.7 mph NNE1.1 kmh NNE 2.0 mph3.2 kmh 30.36 in1028.1 mb 0.00 in0.0 mm 0.00 in0.0 mm 0.00 in0.0 mm
05:06 AM 57.2°F14.0°C 51.8°F11.0°C 82% 0.7 mph NNE1.1 kmh NNE 2.0 mph3.2 kmh 30.36 in1028.1 mb 0.00 in0.0 mm 0.00 in0.0 mm 0.00 in0.0 mm
05:05 AM 57.2°F14.0°C 51.8°F11.0°C 82% 1.1 mph NE1.8 kmh NE -- 30.36 in1028.1 mb 0.00 in0.0 mm 0.00 in0.0 mm 0.00 in0.0 mm
05:04 AM 57.2°F14.0°C 51.8°F11.0°C 82% 1.1 mph NE1.8 kmh NE -- 30.36 in1028.1 mb 0.00 in0.0 mm 0.00 in0.0 mm 0.00 in0.0 mm
05:03 AM 57.2°F14.0°C 51.8°F11.0°C 82% 1.1 mph NE1.8 kmh NE -- 30.36 in1028.1 mb 0.00 in0.0 mm 0.00 in0.0 mm 0.00 in0.0 mm
05:02 AM 57.2°F14.0°C 51.8°F11.0°C 82% 1.1 mph NE1.8 kmh NE -- 30.36 in1028.1 mb 0.00 in0.0 mm 0.00 in0.0 mm 0.00 in0.0 mm
05:01 AM 57.2°F14.0°C 51.8°F11.0°C 82% 1.1 mph NW1.8 kmh NW 4.0 mph6.4 kmh 30.36 in1028.1 mb 0.00 in0.0 mm 0.00 in0.0 mm 0.00 in0.0 mm
05:00 AM 57.2°F14.0°C 51.8°F11.0°C 82% 1.1 mph NW1.8 kmh NW 4.0 mph6.4 kmh 30.36 in1028.1 mb 0.00 in0.0 mm 0.00 in0.0 mm 0.00 in0.0 mm
04:59 AM 57.2°F14.0°C 51.8°F11.0°C 82% 0.7 mph NNE1.1 kmh NNE 1.8 mph2.9 kmh 30.36 in1028.1 mb 0.00 in0.0 mm 0.00 in0.0 mm 0.00 in0.0 mm
04:56 AM 57.2°F14.0°C 51.8°F11.0°C 82% 0.7 mph W1.1 kmh W -- 30.36 in1028.1 mb 0.00 in0.0 mm 0.00 in0.0 mm 0.00 in0.0 mm
04:55 AM 57.4°F14.1°C 52.0°F11.1°C 82% 0.4 mph E0.6 kmh E -- 30.36 in1028.1 mb 0.00 in0.0 mm 0.00 in0.0 mm 0.00 in0.0 mm
04:54 AM 57.4°F14.1°C 52.0°F11.1°C 82% 0.4 mph E0.6 kmh E -- 30.36 in1028.1 mb 0.00 in0.0 mm 0.00 in0.0 mm 0.00 in0.0 mm
04:53 AM 57.2°F14.0°C 51.8°F11.0°C 82% 0.4 mph ESE0.6 kmh ESE 4.7 mph7.6 kmh 30.36 in1028.1 mb 0.00 in0.0 mm 0.00 in0.0 mm 0.00 in0.0 mm
04:52 AM 57.2°F14.0°C 51.8°F11.0°C 82% 0.4 mph ESE0.6 kmh ESE 4.7 mph7.6 kmh 30.36 in1028.1 mb 0.00 in0.0 mm 0.00 in0.0 mm 0.00 in0.0 mm
04:51 AM 57.2°F14.0°C 51.8°F11.0°C 82% 0.2 mph W0.3 kmh W -- 30.36 in1028.1 mb 0.00 in0.0 mm 0.00 in0.0 mm 0.00 in0.0 mm
04:50 AM 57.2°F14.0°C 51.8°F11.0°C 82% 0.2 mph W0.3 kmh W -- 30.36 in1028.1 mb 0.00 in0.0 mm 0.00 in0.0 mm 0.00 in0.0 mm
04:49 AM 57.4°F14.1°C 52.0°F11.1°C 82% 0.2 mph NNW0.3 kmh NNW -- 30.36 in1028.1 mb 0.00 in0.0 mm 0.00 in0.0 mm 0.00 in0.0 mm
04:48 AM 57.4°F14.1°C 52.0°F11.1°C 82% 0.2 mph NNW0.3 kmh NNW -- 30.36 in1028.1 mb 0.00 in0.0 mm 0.00 in0.0 mm 0.00 in0.0 mm
04:46 AM 57.4°F14.1°C 52.0°F11.1°C 82% 0.2 mph E0.3 kmh E 1.3 mph2.1 kmh 30.36 in1028.1 mb 0.00 in0.0 mm 0.00 in0.0 mm 0.00 in0.0 mm
04:45 AM 57.4°F14.1°C 52.0°F11.1°C 82% 0.2 mph NW0.3 kmh NW 1.8 mph2.9 kmh 30.36 in1028.1 mb 0.00 in0.0 mm 0.00 in0.0 mm 0.00 in0.0 mm
04:44 AM 57.4°F14.1°C 52.0°F11.1°C 82% 0.2 mph NW0.3 kmh NW 1.8 mph2.9 kmh 30.36 in1028.1 mb 0.00 in0.0 mm 0.00 in0.0 mm 0.00 in0.0 mm
04:43 AM 57.4°F14.1°C 52.3°F11.3°C 83% 0.2 mph NW0.3 kmh NW -- 30.36 in1028.1 mb 0.00 in0.0 mm 0.00 in0.0 mm 0.00 in0.0 mm
04:42 AM 57.4°F14.1°C 52.3°F11.3°C 83% 0.2 mph NW0.3 kmh NW -- 30.36 in1028.1 mb 0.00 in0.0 mm 0.00 in0.0 mm 0.00 in0.0 mm
04:41 AM 57.4°F14.1°C 52.3°F11.3°C 83% Calm Calm 1.8 mph2.9 kmh 30.36 in1028.1 mb 0.00 in0.0 mm 0.00 in0.0 mm 0.00 in0.0 mm
04:40 AM 57.4°F14.1°C 52.3°F11.3°C 83% Calm Calm 1.8 mph2.9 kmh 30.36 in1028.1 mb 0.00 in0.0 mm 0.00 in0.0 mm 0.00 in0.0 mm
04:39 AM 57.4°F14.1°C 52.3°F11.3°C 83% Calm Calm -- 30.36 in1028.1 mb 0.00 in0.0 mm 0.00 in0.0 mm 0.00 in0.0 mm
04:38 AM 57.4°F14.1°C 52.3°F11.3°C 83% Calm Calm -- 30.36 in1028.1 mb 0.00 in0.0 mm 0.00 in0.0 mm 0.00 in0.0 mm
04:37 AM 57.4°F14.1°C 52.0°F11.1°C 82% Calm Calm -- 30.36 in1028.1 mb 0.00 in0.0 mm 0.00 in0.0 mm 0.00 in0.0 mm
04:35 AM 57.4°F14.1°C 52.0°F11.1°C 82% Calm Calm -- 30.36 in1028.1 mb 0.00 in0.0 mm 0.00 in0.0 mm 0.00 in0.0 mm
04:34 AM 57.4°F14.1°C 52.0°F11.1°C 82% Calm Calm -- 30.36 in1028.1 mb 0.00 in0.0 mm 0.00 in0.0 mm 0.00 in0.0 mm
04:33 AM 57.4°F14.1°C 52.0°F11.1°C 82% Calm Calm -- 30.36 in1028.1 mb 0.00 in0.0 mm 0.00 in0.0 mm 0.00 in0.0 mm
04:32 AM 57.4°F14.1°C 52.0°F11.1°C 82% Calm Calm -- 30.36 in1028.1 mb 0.00 in0.0 mm 0.00 in0.0 mm 0.00 in0.0 mm
04:31 AM 57.7°F14.3°C 52.3°F11.3°C 82% Calm Calm -- 30.36 in1028.1 mb 0.00 in0.0 mm 0.00 in0.0 mm 0.00 in0.0 mm
04:30 AM 57.7°F14.3°C 52.3°F11.3°C 82% Calm Calm -- 30.36 in1028.1 mb 0.00 in0.0 mm 0.00 in0.0 mm 0.00 in0.0 mm
04:29 AM 57.6°F14.2°C 52.2°F11.2°C 82% Calm Calm -- 30.36 in1028.1 mb 0.00 in0.0 mm 0.00 in0.0 mm 0.00 in0.0 mm
04:28 AM 57.6°F14.2°C 52.2°F11.2°C 82% Calm Calm -- 30.36 in1028.1 mb 0.00 in0.0 mm 0.00 in0.0 mm 0.00 in0.0 mm
04:27 AM 57.7°F14.3°C 52.3°F11.3°C 82% Calm Calm -- 30.36 in1028.1 mb 0.00 in0.0 mm 0.00 in0.0 mm 0.00 in0.0 mm
04:26 AM 57.7°F14.3°C 52.3°F11.3°C 82% Calm Calm -- 30.36 in1028.1 mb 0.00 in0.0 mm 0.00 in0.0 mm 0.00 in0.0 mm
04:24 AM 57.7°F14.3°C 52.3°F11.3°C 82% Calm Calm -- 30.36 in1028.1 mb 0.00 in0.0 mm 0.00 in0.0 mm 0.00 in0.0 mm
04:23 AM 57.7°F14.3°C 52.3°F11.3°C 82% Calm Calm -- 30.36 in1028.1 mb 0.00 in0.0 mm 0.00 in0.0 mm 0.00 in0.0 mm
04:22 AM 57.7°F14.3°C 52.3°F11.3°C 82% Calm Calm -- 30.36 in1028.1 mb 0.00 in0.0 mm 0.00 in0.0 mm 0.00 in0.0 mm
04:21 AM 57.7°F14.3°C 52.3°F11.3°C 82% Calm Calm -- 30.36 in1028.1 mb 0.00 in0.0 mm 0.00 in0.0 mm 0.00 in0.0 mm
04:20 AM 57.7°F14.3°C 52.3°F11.3°C 82% Calm Calm -- 30.36 in1028.1 mb 0.00 in0.0 mm 0.00 in0.0 mm 0.00 in0.0 mm
04:19 AM 57.7°F14.3°C 52.3°F11.3°C 82% Calm Calm -- 30.36 in1028.1 mb 0.00 in0.0 mm 0.00 in0.0 mm 0.00 in0.0 mm
04:18 AM 57.7°F14.3°C 52.3°F11.3°C 82% Calm Calm -- 30.36 in1028.1 mb 0.00 in0.0 mm 0.00 in0.0 mm 0.00 in0.0 mm
04:17 AM 57.9°F14.4°C 52.2°F11.2°C 81% Calm Calm -- 30.36 in1028.1 mb 0.00 in0.0 mm 0.00 in0.0 mm 0.00 in0.0 mm
04:16 AM 57.9°F14.4°C 52.2°F11.2°C 81% Calm Calm -- 30.36 in1028.1 mb 0.00 in0.0 mm 0.00 in0.0 mm 0.00 in0.0 mm
04:15 AM 57.9°F14.4°C 52.2°F11.2°C 81% Calm Calm 1.3 mph2.1 kmh 30.36 in1028.1 mb 0.00 in0.0 mm 0.00 in0.0 mm 0.00 in0.0 mm
04:13 AM 57.9°F14.4°C 52.2°F11.2°C 81% 0.2 mph S0.3 kmh S -- 30.36 in1028.1 mb 0.00 in0.0 mm 0.00 in0.0 mm 0.00 in0.0 mm
04:12 AM 57.9°F14.4°C 52.2°F11.2°C 81% 0.2 mph S0.3 kmh S -- 30.36 in1028.1 mb 0.00 in0.0 mm 0.00 in0.0 mm 0.00 in0.0 mm
04:11 AM 57.9°F14.4°C 52.2°F11.2°C 81% 0.2 mph WNW0.3 kmh WNW -- 30.36 in1028.1 mb 0.00 in0.0 mm 0.00 in0.0 mm 0.00 in0.0 mm
04:10 AM 57.9°F14.4°C 52.2°F11.2°C 81% 0.2 mph WNW0.3 kmh WNW -- 30.36 in1028.1 mb 0.00 in0.0 mm 0.00 in0.0 mm 0.00 in0.0 mm
04:09 AM 58.1°F14.5°C 52.3°F11.3°C 81% 0.2 mph ENE0.3 kmh ENE -- 30.36 in1028.1 mb 0.00 in0.0 mm 0.00 in0.0 mm 0.00 in0.0 mm
04:08 AM 58.1°F14.5°C 52.3°F11.3°C 81% 0.2 mph ENE0.3 kmh ENE -- 30.36 in1028.1 mb 0.00 in0.0 mm 0.00 in0.0 mm 0.00 in0.0 mm
04:07 AM 58.3°F14.6°C 52.5°F11.4°C 81% 0.2 mph NE0.3 kmh NE -- 30.36 in1028.1 mb 0.00 in0.0 mm 0.00 in0.0 mm 0.00 in0.0 mm
04:06 AM 58.3°F14.6°C 52.5°F11.4°C 81% 0.2 mph NE0.3 kmh NE -- 30.36 in1028.1 mb 0.00 in0.0 mm 0.00 in0.0 mm 0.00 in0.0 mm
04:05 AM 58.5°F14.7°C 52.7°F11.5°C 81% 0.2 mph SSE0.3 kmh SSE -- 30.36 in1028.1 mb 0.00 in0.0 mm 0.00 in0.0 mm 0.00 in0.0 mm
04:04 AM 58.5°F14.7°C 52.7°F11.5°C 81% 0.2 mph SSE0.3 kmh SSE -- 30.36 in1028.1 mb 0.00 in0.0 mm 0.00 in0.0 mm 0.00 in0.0 mm
04:02 AM 58.5°F14.7°C 52.7°F11.5°C 81% 0.2 mph E0.3 kmh E 1.6 mph2.6 kmh 30.36 in1028.1 mb 0.00 in0.0 mm 0.00 in0.0 mm 0.00 in0.0 mm
04:01 AM 58.5°F14.7°C 52.7°F11.5°C 81% 0.4 mph ENE0.6 kmh ENE -- 30.36 in1028.1 mb 0.00 in0.0 mm 0.00 in0.0 mm 0.00 in0.0 mm
04:00 AM 58.5°F14.7°C 52.7°F11.5°C 81% 0.4 mph ENE0.6 kmh ENE -- 30.36 in1028.1 mb 0.00 in0.0 mm 0.00 in0.0 mm 0.00 in0.0 mm
03:59 AM 58.5°F14.7°C 52.7°F11.5°C 81% 0.7 mph NE1.1 kmh NE -- 30.36 in1028.1 mb 0.00 in0.0 mm 0.00 in0.0 mm 0.00 in0.0 mm
03:58 AM 58.5°F14.7°C 52.7°F11.5°C 81% 0.7 mph NE1.1 kmh NE -- 30.36 in1028.1 mb 0.00 in0.0 mm 0.00 in0.0 mm 0.00 in0.0 mm
03:56 AM 58.6°F14.8°C 52.9°F11.6°C 81% 0.7 mph WNW1.1 kmh WNW -- 30.36 in1028.1 mb 0.00 in0.0 mm 0.00 in0.0 mm 0.00 in0.0 mm
03:55 AM 58.6°F14.8°C 52.9°F11.6°C 81% 0.7 mph 1.1 kmh -- 30.36 in1028.1 mb 0.00 in0.0 mm 0.00 in0.0 mm 0.00 in0.0 mm
03:54 AM 58.6°F14.8°C 52.9°F11.6°C 81% 0.7 mph 1.1 kmh -- 30.36 in1028.1 mb 0.00 in0.0 mm 0.00 in0.0 mm 0.00 in0.0 mm
03:53 AM 58.8°F14.9°C 53.1°F11.7°C 81% 0.9 mph NW1.4 kmh NW 1.6 mph2.6 kmh 30.36 in1028.1 mb 0.00 in0.0 mm 0.00 in0.0 mm 0.00 in0.0 mm
03:51 AM 58.8°F14.9°C 53.1°F11.7°C 81% 0.7 mph SE1.1 kmh SE -- 30.36 in1028.1 mb 0.00 in0.0 mm 0.00 in0.0 mm 0.00 in0.0 mm
03:50 AM 58.8°F14.9°C 53.1°F11.7°C 81% 0.7 mph SE1.1 kmh SE -- 30.36 in1028.1 mb 0.00 in0.0 mm 0.00 in0.0 mm 0.00 in0.0 mm
03:49 AM 59.0°F15.0°C 53.2°F11.8°C 81% 0.9 mph S1.4 kmh S 2.9 mph4.7 kmh 30.36 in1028.1 mb 0.00 in0.0 mm 0.00 in0.0 mm 0.00 in0.0 mm
03:48 AM 59.0°F15.0°C 53.2°F11.8°C 81% 0.9 mph S1.4 kmh S 2.9 mph4.7 kmh 30.36 in1028.1 mb 0.00 in0.0 mm 0.00 in0.0 mm 0.00 in0.0 mm
03:47 AM 59.2°F15.1°C 53.4°F11.9°C 81% 0.9 mph S1.4 kmh S 2.0 mph3.2 kmh 30.36 in1028.1 mb 0.00 in0.0 mm 0.00 in0.0 mm 0.00 in0.0 mm
03:46 AM 59.2°F15.1°C 53.4°F11.9°C 81% 0.9 mph S1.4 kmh S 2.0 mph3.2 kmh 30.36 in1028.1 mb 0.00 in0.0 mm 0.00 in0.0 mm 0.00 in0.0 mm
03:45 AM 59.5°F15.3°C 53.8°F12.1°C 81% 0.7 mph W1.1 kmh W -- 30.36 in1028.1 mb 0.00 in0.0 mm 0.00 in0.0 mm 0.00 in0.0 mm
03:44 AM 59.5°F15.3°C 53.8°F12.1°C 81% 0.7 mph W1.1 kmh W -- 30.36 in1028.1 mb 0.00 in0.0 mm 0.00 in0.0 mm 0.00 in0.0 mm
03:43 AM 59.5°F15.3°C 53.8°F12.1°C 81% 0.7 mph SSW1.1 kmh SSW 2.5 mph4.0 kmh 30.36 in1028.1 mb 0.00 in0.0 mm 0.00 in0.0 mm 0.00 in0.0 mm
03:42 AM 59.5°F15.3°C 53.8°F12.1°C 81% 0.7 mph SSW1.1 kmh SSW 2.5 mph4.0 kmh 30.36 in1028.1 mb 0.00 in0.0 mm 0.00 in0.0 mm 0.00 in0.0 mm
03:40 AM 59.5°F15.3°C 53.8°F12.1°C 81% 0.4 mph SSE0.6 kmh SSE -- 30.36 in1028.1 mb 0.00 in0.0 mm 0.00 in0.0 mm 0.00 in0.0 mm
03:39 AM 59.5°F15.3°C 53.8°F12.1°C 81% 0.4 mph WSW0.6 kmh WSW 2.9 mph4.7 kmh 30.36 in1028.1 mb 0.00 in0.0 mm 0.00 in0.0 mm 0.00 in0.0 mm
03:38 AM 59.5°F15.3°C 53.8°F12.1°C 81% 0.4 mph WSW0.6 kmh WSW 2.9 mph4.7 kmh 30.36 in1028.1 mb 0.00 in0.0 mm 0.00 in0.0 mm 0.00 in0.0 mm
03:37 AM 59.5°F15.3°C 53.8°F12.1°C 81% 0.2 mph NW0.3 kmh NW -- 30.36 in1028.1 mb 0.00 in0.0 mm 0.00 in0.0 mm 0.00 in0.0 mm
03:36 AM 59.5°F15.3°C 53.8°F12.1°C 81% 0.2 mph NW0.3 kmh NW -- 30.36 in1028.1 mb 0.00 in0.0 mm 0.00 in0.0 mm 0.00 in0.0 mm
03:35 AM 59.5°F15.3°C 53.4°F11.9°C 80% 0.2 mph W0.3 kmh W -- 30.36 in1028.1 mb 0.00 in0.0 mm 0.00 in0.0 mm 0.00 in0.0 mm
03:34 AM 59.5°F15.3°C 53.4°F11.9°C 80% 0.2 mph W0.3 kmh W -- 30.36 in1028.1 mb 0.00 in0.0 mm 0.00 in0.0 mm 0.00 in0.0 mm
03:33 AM 59.5°F15.3°C 53.8°F12.1°C 81% 0.4 mph SW0.6 kmh SW -- 30.36 in1028.1 mb 0.00 in0.0 mm 0.00 in0.0 mm 0.00 in0.0 mm
03:32 AM 59.5°F15.3°C 53.8°F12.1°C 81% 0.4 mph SW0.6 kmh SW -- 30.36 in1028.1 mb 0.00 in0.0 mm 0.00 in0.0 mm 0.00 in0.0 mm
03:31 AM 59.5°F15.3°C 53.4°F11.9°C 80% 0.4 mph WNW0.6 kmh WNW -- 30.36 in1028.1 mb 0.00 in0.0 mm 0.00 in0.0 mm 0.00 in0.0 mm
03:29 AM 59.5°F15.3°C 53.4°F11.9°C 80% 0.4 mph NNW0.6 kmh NNW -- 30.36 in1028.1 mb 0.00 in0.0 mm 0.00 in0.0 mm 0.00 in0.0 mm
03:28 AM 59.7°F15.4°C 54.0°F12.2°C 81% 0.4 mph NNW0.6 kmh NNW -- 30.35 in1027.8 mb 0.00 in0.0 mm 0.00 in0.0 mm 0.00 in0.0 mm
03:27 AM 59.7°F15.4°C 53.6°F12.0°C 80% 0.7 mph NNW1.1 kmh NNW -- 30.35 in1027.8 mb 0.00 in0.0 mm 0.00 in0.0 mm 0.00 in0.0 mm
03:26 AM 59.7°F15.4°C 53.6°F12.0°C 80% 0.7 mph NNW1.1 kmh NNW -- 30.35 in1027.8 mb 0.00 in0.0 mm 0.00 in0.0 mm 0.00 in0.0 mm
03:25 AM 59.5°F15.3°C 53.4°F11.9°C 80% 0.7 mph W1.1 kmh W -- 30.35 in1027.8 mb 0.00 in0.0 mm 0.00 in0.0 mm 0.00 in0.0 mm
03:24 AM 59.5°F15.3°C 53.4°F11.9°C 80% 0.7 mph W1.1 kmh W -- 30.35 in1027.8 mb 0.00 in0.0 mm 0.00 in0.0 mm 0.00 in0.0 mm
03:23 AM 59.7°F15.4°C 53.6°F12.0°C 80% 0.9 mph S1.4 kmh S 3.4 mph5.5 kmh 30.35 in1027.8 mb 0.00 in0.0 mm 0.00 in0.0 mm 0.00 in0.0 mm
03:22 AM 59.7°F15.4°C 53.6°F12.0°C 80% 0.9 mph S1.4 kmh S 3.4 mph5.5 kmh 30.35 in1027.8 mb 0.00 in0.0 mm 0.00 in0.0 mm 0.00 in0.0 mm
03:21 AM 59.7°F15.4°C 53.6°F12.0°C 80% 1.1 mph ENE1.8 kmh ENE 1.8 mph2.9 kmh 30.35 in1027.8 mb 0.00 in0.0 mm 0.00 in0.0 mm 0.00 in0.0 mm
03:20 AM 59.7°F15.4°C 53.6°F12.0°C 80% 1.1 mph ENE1.8 kmh ENE 1.8 mph2.9 kmh 30.35 in1027.8 mb 0.00 in0.0 mm 0.00 in0.0 mm 0.00 in0.0 mm
03:18 AM 59.9°F15.5°C 54.1°F12.3°C 81% 0.9 mph NW1.4 kmh NW 2.0 mph3.2 kmh 30.35 in1027.8 mb 0.00 in0.0 mm 0.00 in0.0 mm 0.00 in0.0 mm
03:17 AM 59.9°F15.5°C 54.1°F12.3°C 81% 0.9 mph SSE1.4 kmh SSE 1.6 mph2.6 kmh 30.35 in1027.8 mb 0.00 in0.0 mm 0.00 in0.0 mm 0.00 in0.0 mm
03:16 AM 59.9°F15.5°C 54.1°F12.3°C 81% 0.9 mph SSE1.4 kmh SSE 1.6 mph2.6 kmh 30.35 in1027.8 mb 0.00 in0.0 mm 0.00 in0.0 mm 0.00 in0.0 mm
03:15 AM 59.9°F15.5°C 54.1°F12.3°C 81% 0.9 mph NNE1.4 kmh NNE -- 30.35 in1027.8 mb 0.00 in0.0 mm 0.00 in0.0 mm 0.00 in0.0 mm
03:14 AM 59.9°F15.5°C 54.1°F12.3°C 81% 0.9 mph NNE1.4 kmh NNE -- 30.35 in1027.8 mb 0.00 in0.0 mm 0.00 in0.0 mm 0.00 in0.0 mm
03:13 AM 59.9°F15.5°C 54.1°F12.3°C 81% 0.7 mph ENE1.1 kmh ENE 1.3 mph2.1 kmh 30.35 in1027.8 mb 0.00 in0.0 mm 0.00 in0.0 mm 0.00 in0.0 mm
03:12 AM 59.9°F15.5°C 54.1°F12.3°C 81% 0.7 mph ENE1.1 kmh ENE 1.3 mph2.1 kmh 30.35 in1027.8 mb 0.00 in0.0 mm 0.00 in0.0 mm 0.00 in0.0 mm
03:11 AM 59.9°F15.5°C 54.1°F12.3°C 81% 0.4 mph NE0.6 kmh NE 2.2 mph3.5 kmh 30.35 in1027.8 mb 0.00 in0.0 mm 0.00 in0.0 mm 0.00 in0.0 mm
03:10 AM 59.9°F15.5°C 54.1°F12.3°C 81% 0.4 mph NE0.6 kmh NE 2.2 mph3.5 kmh 30.35 in1027.8 mb 0.00 in0.0 mm 0.00 in0.0 mm 0.00 in0.0 mm
03:09 AM 59.9°F15.5°C 54.1°F12.3°C 81% 0.4 mph W0.6 kmh W -- 30.35 in1027.8 mb 0.00 in0.0 mm 0.00 in0.0 mm 0.00 in0.0 mm
03:07 AM 59.9°F15.5°C 54.1°F12.3°C 81% 0.4 mph ENE0.6 kmh ENE 1.8 mph2.9 kmh 30.36 in1028.1 mb 0.00 in0.0 mm 0.00 in0.0 mm 0.00 in0.0 mm
03:06 AM 59.9°F15.5°C 54.1°F12.3°C 81% 0.4 mph ENE0.6 kmh ENE 1.8 mph2.9 kmh 30.36 in1028.1 mb 0.00 in0.0 mm 0.00 in0.0 mm 0.00 in0.0 mm
03:05 AM 59.9°F15.5°C 54.1°F12.3°C 81% 0.4 mph NNE0.6 kmh NNE 2.5 mph4.0 kmh 30.36 in1028.1 mb 0.00 in0.0 mm 0.00 in0.0 mm 0.00 in0.0 mm
03:04 AM 59.9°F15.5°C 54.1°F12.3°C 81% 0.4 mph NNE0.6 kmh NNE 2.5 mph4.0 kmh 30.36 in1028.1 mb 0.00 in0.0 mm 0.00 in0.0 mm 0.00 in0.0 mm
03:03 AM 59.9°F15.5°C 54.1°F12.3°C 81% 0.4 mph W0.6 kmh W -- 30.36 in1028.1 mb 0.00 in0.0 mm 0.00 in0.0 mm 0.00 in0.0 mm
03:02 AM 59.9°F15.5°C 54.1°F12.3°C 81% 0.4 mph W0.6 kmh W -- 30.36 in1028.1 mb 0.00 in0.0 mm 0.00 in0.0 mm 0.00 in0.0 mm
03:01 AM 59.9°F15.5°C 54.1°F12.3°C 81% 0.4 mph ESE0.6 kmh ESE 1.6 mph2.6 kmh 30.36 in1028.1 mb 0.00 in0.0 mm 0.00 in0.0 mm 0.00 in0.0 mm
03:00 AM 59.9°F15.5°C 54.1°F12.3°C 81% 0.4 mph ESE0.6 kmh ESE 1.6 mph2.6 kmh 30.36 in1028.1 mb 0.00 in0.0 mm 0.00 in0.0 mm 0.00 in0.0 mm
02:59 AM 59.9°F15.5°C 54.1°F12.3°C 81% 0.7 mph 1.1 kmh 1.8 mph2.9 kmh 30.36 in1028.1 mb 0.00 in0.0 mm 0.00 in0.0 mm 0.00 in0.0 mm
02:58 AM 59.9°F15.5°C 54.1°F12.3°C 81% 0.7 mph 1.1 kmh 1.8 mph2.9 kmh 30.36 in1028.1 mb 0.00 in0.0 mm 0.00 in0.0 mm 0.00 in0.0 mm
02:56 AM 59.9°F15.5°C 54.1°F12.3°C 81% 0.7 mph SSE1.1 kmh SSE -- 30.36 in1028.1 mb 0.00 in0.0 mm 0.00 in0.0 mm 0.00 in0.0 mm
02:55 AM 59.9°F15.5°C 54.3°F12.4°C 82% 0.7 mph NW1.1 kmh NW -- 30.36 in1028.1 mb 0.00 in0.0 mm 0.00 in0.0 mm 0.00 in0.0 mm
02:54 AM 59.9°F15.5°C 54.3°F12.4°C 82% 0.7 mph NW1.1 kmh NW -- 30.36 in1028.1 mb 0.00 in0.0 mm 0.00 in0.0 mm 0.00 in0.0 mm
02:53 AM 59.7°F15.4°C 54.1°F12.3°C 82% 0.7 mph WSW1.1 kmh WSW -- 30.36 in1028.1 mb 0.00 in0.0 mm 0.00 in0.0 mm 0.00 in0.0 mm
02:52 AM 59.7°F15.4°C 54.1°F12.3°C 82% 0.7 mph WSW1.1 kmh WSW -- 30.36 in1028.1 mb 0.00 in0.0 mm 0.00 in0.0 mm 0.00 in0.0 mm
02:51 AM 59.5°F15.3°C 54.0°F12.2°C 82% 0.9 mph NNW1.4 kmh NNW 1.6 mph2.6 kmh 30.36 in1028.1 mb 0.00 in0.0 mm 0.00 in0.0 mm 0.00 in0.0 mm
02:50 AM 59.5°F15.3°C 54.0°F12.2°C 82% 0.9 mph NNW1.4 kmh NNW 1.6 mph2.6 kmh 30.36 in1028.1 mb 0.00 in0.0 mm 0.00 in0.0 mm 0.00 in0.0 mm
02:49 AM 59.5°F15.3°C 54.0°F12.2°C 82% 0.7 mph SW1.1 kmh SW 2.2 mph3.5 kmh 30.36 in1028.1 mb 0.00 in0.0 mm 0.00 in0.0 mm 0.00 in0.0 mm
02:48 AM 59.5°F15.3°C 54.0°F12.2°C 82% 0.7 mph SW1.1 kmh SW 2.2 mph3.5 kmh 30.36 in1028.1 mb 0.00 in0.0 mm 0.00 in0.0 mm 0.00 in0.0 mm
02:47 AM 59.5°F15.3°C 54.0°F12.2°C 82% 0.7 mph W1.1 kmh W 2.7 mph4.3 kmh 30.36 in1028.1 mb 0.00 in0.0 mm 0.00 in0.0 mm 0.00 in0.0 mm
02:45 AM 59.5°F15.3°C 54.0°F12.2°C 82% 0.7 mph SE1.1 kmh SE 2.7 mph4.3 kmh 30.36 in1028.1 mb 0.00 in0.0 mm 0.00 in0.0 mm 0.00 in0.0 mm
02:44 AM 59.5°F15.3°C 54.0°F12.2°C 82% 0.7 mph SE1.1 kmh SE 2.7 mph4.3 kmh 30.36 in1028.1 mb 0.00 in0.0 mm 0.00 in0.0 mm 0.00 in0.0 mm
02:43 AM 59.5°F15.3°C 54.0°F12.2°C 82% 0.4 mph NNE0.6 kmh NNE 2.2 mph3.5 kmh 30.36 in1028.1 mb 0.00 in0.0 mm 0.00 in0.0 mm 0.00 in0.0 mm
02:42 AM 59.5°F15.3°C 54.0°F12.2°C 82% 0.4 mph NNE0.6 kmh NNE 2.2 mph3.5 kmh 30.36 in1028.1 mb 0.00 in0.0 mm 0.00 in0.0 mm 0.00 in0.0 mm
02:41 AM 59.5°F15.3°C 54.0°F12.2°C 82% 0.2 mph SSE0.3 kmh SSE 3.1 mph5.0 kmh 30.36 in1028.1 mb 0.00 in0.0 mm 0.00 in0.0 mm 0.00 in0.0 mm
02:40 AM 59.5°F15.3°C 54.0°F12.2°C 82% 0.2 mph SSE0.3 kmh SSE 3.1 mph5.0 kmh 30.36 in1028.1 mb 0.00 in0.0 mm 0.00 in0.0 mm 0.00 in0.0 mm
02:39 AM 59.5°F15.3°C 54.0°F12.2°C 82% 0.2 mph NW0.3 kmh NW -- 30.36 in1028.1 mb 0.00 in0.0 mm 0.00 in0.0 mm 0.00 in0.0 mm
02:38 AM 59.5°F15.3°C 54.0°F12.2°C 82% 0.2 mph NW0.3 kmh NW -- 30.36 in1028.1 mb 0.00 in0.0 mm 0.00 in0.0 mm 0.00 in0.0 mm
02:37 AM 59.5°F15.3°C 54.0°F12.2°C 82% 0.2 mph NW0.3 kmh NW 1.6 mph2.6 kmh 30.36 in1028.1 mb 0.00 in0.0 mm 0.00 in0.0 mm 0.00 in0.0 mm
02:36 AM 59.5°F15.3°C 54.0°F12.2°C 82% 0.2 mph NW0.3 kmh NW 1.6 mph2.6 kmh 30.36 in1028.1 mb 0.00 in0.0 mm 0.00 in0.0 mm 0.00 in0.0 mm
02:34 AM 59.5°F15.3°C 54.0°F12.2°C 82% Calm Calm -- 30.36 in1028.1 mb 0.00 in0.0 mm 0.00 in0.0 mm 0.00 in0.0 mm
02:33 AM 59.4°F15.2°C 53.8°F12.1°C 82% 0.2 mph E0.3 kmh E 1.3 mph2.1 kmh 30.36 in1028.1 mb 0.00 in0.0 mm 0.00 in0.0 mm 0.00 in0.0 mm
02:32 AM 59.4°F15.2°C 53.8°F12.1°C 82% 0.2 mph E0.3 kmh E 1.3 mph2.1 kmh 30.36 in1028.1 mb 0.00 in0.0 mm 0.00 in0.0 mm 0.00 in0.0 mm
02:31 AM 59.4°F15.2°C 53.8°F12.1°C 82% 0.2 mph W0.3 kmh W -- 30.36 in1028.1 mb 0.00 in0.0 mm 0.00 in0.0 mm 0.00 in0.0 mm
02:30 AM 59.4°F15.2°C 53.8°F12.1°C 82% 0.2 mph W0.3 kmh W -- 30.36 in1028.1 mb 0.00 in0.0 mm 0.00 in0.0 mm 0.00 in0.0 mm
02:29 AM 59.5°F15.3°C 54.0°F12.2°C 82% 0.2 mph E0.3 kmh E -- 30.36 in1028.1 mb 0.00 in0.0 mm 0.00 in0.0 mm 0.00 in0.0 mm
02:28 AM 59.5°F15.3°C 54.0°F12.2°C 82% 0.2 mph E0.3 kmh E -- 30.35 in1027.8 mb 0.00 in0.0 mm 0.00 in0.0 mm 0.00 in0.0 mm
02:27 AM 59.5°F15.3°C 54.0°F12.2°C 82% 0.2 mph SW0.3 kmh SW -- 30.35 in1027.8 mb 0.00 in0.0 mm 0.00 in0.0 mm 0.00 in0.0 mm
02:26 AM 59.5°F15.3°C 54.0°F12.2°C 82% 0.2 mph SW0.3 kmh SW -- 30.35 in1027.8 mb 0.00 in0.0 mm 0.00 in0.0 mm 0.00 in0.0 mm
02:25 AM 59.5°F15.3°C 54.0°F12.2°C 82% 0.2 mph ENE0.3 kmh ENE -- 30.35 in1027.8 mb 0.00 in0.0 mm 0.00 in0.0 mm 0.00 in0.0 mm
02:23 AM 59.5°F15.3°C 54.0°F12.2°C 82% 0.2 mph ENE0.3 kmh ENE 1.3 mph2.1 kmh 30.35 in1027.8 mb 0.00 in0.0 mm 0.00 in0.0 mm 0.00 in0.0 mm
02:22 AM 59.5°F15.3°C 54.0°F12.2°C 82% 0.2 mph ENE0.3 kmh ENE 1.3 mph2.1 kmh 30.35 in1027.8 mb 0.00 in0.0 mm 0.00 in0.0 mm 0.00 in0.0 mm
02:21 AM 59.5°F15.3°C 54.0°F12.2°C 82% 0.2 mph SSE0.3 kmh SSE -- 30.35 in1027.8 mb 0.00 in0.0 mm 0.00 in0.0 mm 0.00 in0.0 mm
02:20 AM 59.5°F15.3°C 54.0°F12.2°C 82% 0.2 mph SSE0.3 kmh SSE -- 30.35 in1027.8 mb 0.00 in0.0 mm 0.00 in0.0 mm 0.00 in0.0 mm
02:19 AM 59.7°F15.4°C 54.0°F12.2°C 81% 0.4 mph NE0.6 kmh NE -- 30.35 in1027.8 mb 0.00 in0.0 mm 0.00 in0.0 mm 0.00 in0.0 mm
02:18 AM 59.7°F15.4°C 54.0°F12.2°C 81% 0.4 mph NE0.6 kmh NE -- 30.35 in1027.8 mb 0.00 in0.0 mm 0.00 in0.0 mm 0.00 in0.0 mm
02:17 AM 59.9°F15.5°C 54.1°F12.3°C 81% 0.2 mph WNW0.3 kmh WNW -- 30.35 in1027.8 mb 0.00 in0.0 mm 0.00 in0.0 mm 0.00 in0.0 mm
02:16 AM 59.9°F15.5°C 54.1°F12.3°C 81% 0.2 mph WNW0.3 kmh WNW -- 30.35 in1027.8 mb 0.00 in0.0 mm 0.00 in0.0 mm 0.00 in0.0 mm
02:15 AM 59.7°F15.4°C 54.1°F12.3°C 82% 0.4 mph NE0.6 kmh NE -- 30.35 in1027.8 mb 0.00 in0.0 mm 0.00 in0.0 mm 0.00 in0.0 mm
02:14 AM 59.7°F15.4°C 54.1°F12.3°C 82% 0.4 mph NE0.6 kmh NE -- 30.35 in1027.8 mb 0.00 in0.0 mm 0.00 in0.0 mm 0.00 in0.0 mm
02:12 AM 59.9°F15.5°C 54.3°F12.4°C 82% 0.7 mph NNE1.1 kmh NNE 2.2 mph3.5 kmh 30.35 in1027.8 mb 0.00 in0.0 mm 0.00 in0.0 mm 0.00 in0.0 mm
02:11 AM 59.9°F15.5°C 54.1°F12.3°C 81% 0.4 mph NE0.6 kmh NE 1.3 mph2.1 kmh 30.35 in1027.8 mb 0.00 in0.0 mm 0.00 in0.0 mm 0.00 in0.0 mm
02:10 AM 59.9°F15.5°C 54.1°F12.3°C 81% 0.4 mph NE0.6 kmh NE 1.3 mph2.1 kmh 30.35 in1027.8 mb 0.00 in0.0 mm 0.00 in0.0 mm 0.00 in0.0 mm
02:09 AM 59.9°F15.5°C 54.1°F12.3°C 81% 0.4 mph W0.6 kmh W 1.8 mph2.9 kmh 30.35 in1027.8 mb 0.00 in0.0 mm 0.00 in0.0 mm 0.00 in0.0 mm
02:08 AM 59.9°F15.5°C 54.1°F12.3°C 81% 0.4 mph W0.6 kmh W 1.8 mph2.9 kmh 30.35 in1027.8 mb 0.00 in0.0 mm 0.00 in0.0 mm 0.00 in0.0 mm
02:07 AM 59.9°F15.5°C 54.1°F12.3°C 81% 0.4 mph ENE0.6 kmh ENE -- 30.35 in1027.8 mb 0.00 in0.0 mm 0.00 in0.0 mm 0.00 in0.0 mm
02:06 AM 59.9°F15.5°C 54.1°F12.3°C 81% 0.4 mph ENE0.6 kmh ENE -- 30.35 in1027.8 mb 0.00 in0.0 mm 0.00 in0.0 mm 0.00 in0.0 mm
02:05 AM 59.9°F15.5°C 54.1°F12.3°C 81% 0.4 mph E0.6 kmh E 2.0 mph3.2 kmh 30.35 in1027.8 mb 0.00 in0.0 mm 0.00 in0.0 mm 0.00 in0.0 mm
02:04 AM 59.9°F15.5°C 54.1°F12.3°C 81% 0.4 mph E0.6 kmh E 2.0 mph3.2 kmh 30.35 in1027.8 mb 0.00 in0.0 mm 0.00 in0.0 mm 0.00 in0.0 mm
02:03 AM 59.9°F15.5°C 54.1°F12.3°C 81% 0.4 mph E0.6 kmh E 2.0 mph3.2 kmh 30.35 in1027.8 mb 0.00 in0.0 mm 0.00 in0.0 mm 0.00 in0.0 mm
02:01 AM 59.9°F15.5°C 54.1°F12.3°C 81% 0.4 mph SE0.6 kmh SE 2.0 mph3.2 kmh 30.35 in1027.8 mb 0.00 in0.0 mm 0.00 in0.0 mm 0.00 in0.0 mm
02:00 AM 59.9°F15.5°C 54.1°F12.3°C 81% 0.4 mph SE0.6 kmh SE 2.0 mph3.2 kmh 30.35 in1027.8 mb 0.00 in0.0 mm 0.00 in0.0 mm 0.00 in0.0 mm
01:59 AM 60.1°F15.6°C 54.3°F12.4°C 81% 0.7 mph SE1.1 kmh SE 1.3 mph2.1 kmh 30.35 in1027.8 mb 0.00 in0.0 mm 0.00 in0.0 mm 0.00 in0.0 mm
01:58 AM 60.1°F15.6°C 54.3°F12.4°C 81% 0.7 mph SE1.1 kmh SE 1.3 mph2.1 kmh 30.35 in1027.8 mb 0.00 in0.0 mm 0.00 in0.0 mm 0.00 in0.0 mm
01:57 AM 60.3°F15.7°C 54.3°F12.4°C 81% 0.7 mph 1.1 kmh -- 30.35 in1027.8 mb 0.00 in0.0 mm 0.00 in0.0 mm 0.00 in0.0 mm
01:56 AM 60.3°F15.7°C 54.3°F12.4°C 81% 0.7 mph 1.1 kmh -- 30.35 in1027.8 mb 0.00 in0.0 mm 0.00 in0.0 mm 0.00 in0.0 mm
01:55 AM 60.1°F15.6°C 54.3°F12.4°C 81% 1.1 mph WSW1.8 kmh WSW -- 30.35 in1027.8 mb 0.00 in0.0 mm 0.00 in0.0 mm 0.00 in0.0 mm
01:54 AM 60.1°F15.6°C 54.3°F12.4°C 81% 1.1 mph WSW1.8 kmh WSW -- 30.35 in1027.8 mb 0.00 in0.0 mm 0.00 in0.0 mm 0.00 in0.0 mm
01:53 AM 60.1°F15.6°C 54.3°F12.4°C 81% 1.1 mph SE1.8 kmh SE 3.6 mph5.8 kmh 30.35 in1027.8 mb 0.00 in0.0 mm 0.00 in0.0 mm 0.00 in0.0 mm
01:52 AM 60.1°F15.6°C 54.3°F12.4°C 81% 1.1 mph W1.8 kmh W 1.3 mph2.1 kmh 30.35 in1027.8 mb 0.00 in0.0 mm 0.00 in0.0 mm 0.00 in0.0 mm
01:50 AM 60.3°F15.7°C 54.3°F12.4°C 81% 1.1 mph W1.8 kmh W 1.3 mph2.1 kmh 30.35 in1027.8 mb 0.00 in0.0 mm 0.00 in0.0 mm 0.00 in0.0 mm
01:49 AM 60.3°F15.7°C 54.3°F12.4°C 81% 1.3 mph S2.1 kmh S 4.5 mph7.2 kmh 30.35 in1027.8 mb 0.00 in0.0 mm 0.00 in0.0 mm 0.00 in0.0 mm
01:48 AM 60.3°F15.7°C 54.3°F12.4°C 81% 1.3 mph S2.1 kmh S 4.5 mph7.2 kmh 30.35 in1027.8 mb 0.00 in0.0 mm 0.00 in0.0 mm 0.00 in0.0 mm
01:47 AM 60.3°F15.7°C 54.3°F12.4°C 81% 1.3 mph W2.1 kmh W -- 30.35 in1027.8 mb 0.00 in0.0 mm 0.00 in0.0 mm 0.00 in0.0 mm
01:46 AM 60.3°F15.7°C 54.3°F12.4°C 81% 1.3 mph W2.1 kmh W -- 30.35 in1027.8 mb 0.00 in0.0 mm 0.00 in0.0 mm 0.00 in0.0 mm
01:45 AM 60.3°F15.7°C 54.3°F12.4°C 81% 1.6 mph SE2.6 kmh SE 2.2 mph3.5 kmh 30.35 in1027.8 mb 0.00 in0.0 mm 0.00 in0.0 mm 0.00 in0.0 mm
01:44 AM 60.3°F15.7°C 54.3°F12.4°C 81% 1.6 mph SE2.6 kmh SE 2.2 mph3.5 kmh 30.35 in1027.8 mb 0.00 in0.0 mm 0.00 in0.0 mm 0.00 in0.0 mm
01:43 AM 60.3°F15.7°C 54.3°F12.4°C 81% 1.8 mph ENE2.9 kmh ENE -- 30.35 in1027.8 mb 0.00 in0.0 mm 0.00 in0.0 mm 0.00 in0.0 mm
01:42 AM 60.3°F15.7°C 54.3°F12.4°C 81% 1.8 mph ENE2.9 kmh ENE -- 30.35 in1027.8 mb 0.00 in0.0 mm 0.00 in0.0 mm 0.00 in0.0 mm
01:41 AM 60.4°F15.8°C 54.5°F12.5°C 81% 2.0 mph ESE3.2 kmh ESE 2.2 mph3.5 kmh 30.35 in1027.8 mb 0.00 in0.0 mm 0.00 in0.0 mm 0.00 in0.0 mm
01:39 AM 60.6°F15.9°C 54.7°F12.6°C 81% 2.0 mph SSE3.2 kmh SSE 2.5 mph4.0 kmh 30.35 in1027.8 mb 0.00 in0.0 mm 0.00 in0.0 mm 0.00 in0.0 mm
01:38 AM 60.6°F15.9°C 54.7°F12.6°C 81% 2.0 mph SSE3.2 kmh SSE 2.5 mph4.0 kmh 30.35 in1027.8 mb 0.00 in0.0 mm 0.00 in0.0 mm 0.00 in0.0 mm
01:37 AM 60.6°F15.9°C 54.7°F12.6°C 81% 1.8 mph ENE2.9 kmh ENE 1.3 mph2.1 kmh 30.35 in1027.8 mb 0.00 in0.0 mm 0.00 in0.0 mm 0.00 in0.0 mm
01:36 AM 60.6°F15.9°C 54.7°F12.6°C 81% 1.8 mph ENE2.9 kmh ENE 1.3 mph2.1 kmh 30.35 in1027.8 mb 0.00 in0.0 mm 0.00 in0.0 mm 0.00 in0.0 mm
01:35 AM 60.4°F15.8°C 54.5°F12.5°C 81% 2.0 mph ENE3.2 kmh ENE 2.0 mph3.2 kmh 30.35 in1027.8 mb 0.00 in0.0 mm 0.00 in0.0 mm 0.00 in0.0 mm
01:34 AM 60.4°F15.8°C 54.5°F12.5°C 81% 2.0 mph ENE3.2 kmh ENE 2.0 mph3.2 kmh 30.35 in1027.8 mb 0.00 in0.0 mm 0.00 in0.0 mm 0.00 in0.0 mm
01:33 AM 60.4°F15.8°C 54.5°F12.5°C 81% 2.0 mph ENE3.2 kmh ENE 5.4 mph8.7 kmh 30.35 in1027.8 mb 0.00 in0.0 mm 0.00 in0.0 mm 0.00 in0.0 mm
01:32 AM 60.4°F15.8°C 54.5°F12.5°C 81% 2.0 mph ENE3.2 kmh ENE 5.4 mph8.7 kmh 30.35 in1027.8 mb 0.00 in0.0 mm 0.00 in0.0 mm 0.00 in0.0 mm
01:31 AM 60.6°F15.9°C 54.7°F12.6°C 81% 1.8 mph WNW2.9 kmh WNW 3.1 mph5.0 kmh 30.35 in1027.8 mb 0.00 in0.0 mm 0.00 in0.0 mm 0.00 in0.0 mm
01:30 AM 60.6°F15.9°C 54.7°F12.6°C 81% 1.8 mph NW2.9 kmh NW 2.5 mph4.0 kmh 30.35 in1027.8 mb 0.00 in0.0 mm 0.00 in0.0 mm 0.00 in0.0 mm
01:28 AM 60.6°F15.9°C 54.7°F12.6°C 81% 1.8 mph NW2.9 kmh NW 2.5 mph4.0 kmh 30.36 in1028.1 mb 0.00 in0.0 mm 0.00 in0.0 mm 0.00 in0.0 mm
01:27 AM 60.6°F15.9°C 54.7°F12.6°C 81% 2.0 mph ESE3.2 kmh ESE -- 30.36 in1028.1 mb 0.00 in0.0 mm 0.00 in0.0 mm 0.00 in0.0 mm
01:26 AM 60.6°F15.9°C 54.7°F12.6°C 81% 2.0 mph ESE3.2 kmh ESE -- 30.36 in1028.1 mb 0.00 in0.0 mm 0.00 in0.0 mm 0.00 in0.0 mm
01:25 AM 60.6°F15.9°C 54.7°F12.6°C 81% 2.2 mph NE3.5 kmh NE 4.3 mph6.9 kmh 30.36 in1028.1 mb 0.00 in0.0 mm 0.00 in0.0 mm 0.00 in0.0 mm
01:24 AM 60.6°F15.9°C 54.7°F12.6°C 81% 2.2 mph NE3.5 kmh NE 4.3 mph6.9 kmh 30.36 in1028.1 mb 0.00 in0.0 mm 0.00 in0.0 mm 0.00 in0.0 mm
01:23 AM 60.6°F15.9°C 54.7°F12.6°C 81% 2.0 mph ENE3.2 kmh ENE 4.9 mph7.9 kmh 30.36 in1028.1 mb 0.00 in0.0 mm 0.00 in0.0 mm 0.00 in0.0 mm
01:22 AM 60.6°F15.9°C 54.7°F12.6°C 81% 2.0 mph ENE3.2 kmh ENE 4.9 mph7.9 kmh 30.36 in1028.1 mb 0.00 in0.0 mm 0.00 in0.0 mm 0.00 in0.0 mm
01:21 AM 60.6°F15.9°C 54.7°F12.6°C 81% 1.8 mph WSW2.9 kmh WSW 3.6 mph5.8 kmh 30.36 in1028.1 mb 0.00 in0.0 mm 0.00 in0.0 mm 0.00 in0.0 mm
01:20 AM 60.6°F15.9°C 54.7°F12.6°C 81% 1.8 mph WSW2.9 kmh WSW 3.6 mph5.8 kmh 30.36 in1028.1 mb 0.00 in0.0 mm 0.00 in0.0 mm 0.00 in0.0 mm
01:19 AM 60.6°F15.9°C 54.7°F12.6°C 81% 1.1 mph NNW1.8 kmh NNW 3.1 mph5.0 kmh 30.36 in1028.1 mb 0.00 in0.0 mm 0.00 in0.0 mm 0.00 in0.0 mm
01:17 AM 60.8°F16.0°C 54.9°F12.7°C 81% 0.9 mph W1.4 kmh W 2.2 mph3.5 kmh 30.36 in1028.1 mb 0.00 in0.0 mm 0.00 in0.0 mm 0.00 in0.0 mm
01:16 AM 60.8°F16.0°C 54.9°F12.7°C 81% 0.9 mph W1.4 kmh W 2.2 mph3.5 kmh 30.36 in1028.1 mb 0.00 in0.0 mm 0.00 in0.0 mm 0.00 in0.0 mm
01:15 AM 60.8°F16.0°C 54.9°F12.7°C 81% 0.7 mph ESE1.1 kmh ESE 4.3 mph6.9 kmh 30.36 in1028.1 mb 0.00 in0.0 mm 0.00 in0.0 mm 0.00 in0.0 mm
01:14 AM 60.8°F16.0°C 54.9°F12.7°C 81% 0.7 mph ESE1.1 kmh ESE 4.3 mph6.9 kmh 30.36 in1028.1 mb 0.00 in0.0 mm 0.00 in0.0 mm 0.00 in0.0 mm
01:13 AM 61.0°F16.1°C 55.0°F12.8°C 81% 0.2 mph E0.3 kmh E -- 30.36 in1028.1 mb 0.00 in0.0 mm 0.00 in0.0 mm 0.00 in0.0 mm
01:12 AM 61.0°F16.1°C 55.0°F12.8°C 81% 0.2 mph E0.3 kmh E -- 30.36 in1028.1 mb 0.00 in0.0 mm 0.00 in0.0 mm 0.00 in0.0 mm
01:11 AM 60.8°F16.0°C 54.9°F12.7°C 81% 0.2 mph ENE0.3 kmh ENE 1.8 mph2.9 kmh 30.36 in1028.1 mb 0.00 in0.0 mm 0.00 in0.0 mm 0.00 in0.0 mm
01:10 AM 60.8°F16.0°C 54.9°F12.7°C 81% 0.2 mph ENE0.3 kmh ENE 1.8 mph2.9 kmh 30.36 in1028.1 mb 0.00 in0.0 mm 0.00 in0.0 mm 0.00 in0.0 mm
01:09 AM 60.8°F16.0°C 54.9°F12.7°C 81% 0.2 mph 0.3 kmh -- 30.36 in1028.1 mb 0.00 in0.0 mm 0.00 in0.0 mm 0.00 in0.0 mm
01:08 AM 60.8°F16.0°C 54.9°F12.7°C 81% 0.4 mph ENE0.6 kmh ENE -- 30.37 in1028.4 mb 0.00 in0.0 mm 0.00 in0.0 mm 0.00 in0.0 mm
01:06 AM 60.8°F16.0°C 54.9°F12.7°C 81% 0.4 mph ENE0.6 kmh ENE -- 30.37 in1028.4 mb 0.00 in0.0 mm 0.00 in0.0 mm 0.00 in0.0 mm
01:05 AM 60.8°F16.0°C 54.9°F12.7°C 81% 0.4 mph WSW0.6 kmh WSW 1.3 mph2.1 kmh 30.37 in1028.4 mb 0.00 in0.0 mm 0.00 in0.0 mm 0.00 in0.0 mm
01:04 AM 60.8°F16.0°C 54.9°F12.7°C 81% 0.4 mph WSW0.6 kmh WSW 1.3 mph2.1 kmh 30.37 in1028.4 mb 0.00 in0.0 mm 0.00 in0.0 mm 0.00 in0.0 mm
01:03 AM 60.8°F16.0°C 54.9°F12.7°C 81% 0.2 mph SW0.3 kmh SW -- 30.37 in1028.4 mb 0.00 in0.0 mm 0.00 in0.0 mm 0.00 in0.0 mm
01:02 AM 60.8°F16.0°C 54.9°F12.7°C 81% 0.2 mph SW0.3 kmh SW -- 30.37 in1028.4 mb 0.00 in0.0 mm 0.00 in0.0 mm 0.00 in0.0 mm
01:01 AM 60.8°F16.0°C 54.9°F12.7°C 81% 0.2 mph NNW0.3 kmh NNW -- 30.37 in1028.4 mb 0.00 in0.0 mm 0.00 in0.0 mm 0.00 in0.0 mm
01:00 AM 60.8°F16.0°C 54.9°F12.7°C 81% 0.2 mph NNW0.3 kmh NNW -- 30.37 in1028.4 mb 0.00 in0.0 mm 0.00 in0.0 mm 0.00 in0.0 mm
12:59 AM 61.0°F16.1°C 55.0°F12.8°C 81% 0.2 mph ENE0.3 kmh ENE 2.7 mph4.3 kmh 30.37 in1028.4 mb 0.00 in0.0 mm 0.00 in0.0 mm 0.00 in0.0 mm
12:58 AM 61.0°F16.1°C 55.0°F12.8°C 81% 0.2 mph ENE0.3 kmh ENE 2.7 mph4.3 kmh 30.37 in1028.4 mb 0.00 in0.0 mm 0.00 in0.0 mm 0.00 in0.0 mm
12:57 AM 61.0°F16.1°C 55.0°F12.8°C 81% 0.2 mph SE0.3 kmh SE 1.3 mph2.1 kmh 30.37 in1028.4 mb 0.00 in0.0 mm 0.00 in0.0 mm 0.00 in0.0 mm
12:55 AM 60.8°F16.0°C 54.7°F12.6°C 80% 0.2 mph W0.3 kmh W 1.3 mph2.1 kmh 30.37 in1028.4 mb 0.00 in0.0 mm 0.00 in0.0 mm 0.00 in0.0 mm
12:54 AM 60.8°F16.0°C 54.7°F12.6°C 80% 0.2 mph W0.3 kmh W 1.3 mph2.1 kmh 30.37 in1028.4 mb 0.00 in0.0 mm 0.00 in0.0 mm 0.00 in0.0 mm
12:53 AM 61.0°F16.1°C 54.7°F12.6°C 80% 0.2 mph SE0.3 kmh SE -- 30.37 in1028.4 mb 0.00 in0.0 mm 0.00 in0.0 mm 0.00 in0.0 mm
12:52 AM 61.0°F16.1°C 54.7°F12.6°C 80% 0.2 mph SE0.3 kmh SE -- 30.37 in1028.4 mb 0.00 in0.0 mm 0.00 in0.0 mm 0.00 in0.0 mm
12:51 AM 61.0°F16.1°C 54.7°F12.6°C 80% 0.2 mph E0.3 kmh E -- 30.37 in1028.4 mb 0.00 in0.0 mm 0.00 in0.0 mm 0.00 in0.0 mm
12:50 AM 61.0°F16.1°C 54.7°F12.6°C 80% 0.2 mph E0.3 kmh E -- 30.37 in1028.4 mb 0.00 in0.0 mm 0.00 in0.0 mm 0.00 in0.0 mm
12:49 AM 61.3°F16.3°C 55.0°F12.8°C 80% 0.2 mph SW0.3 kmh SW -- 30.37 in1028.4 mb 0.00 in0.0 mm 0.00 in0.0 mm 0.00 in0.0 mm
12:48 AM 61.3°F16.3°C 55.0°F12.8°C 80% 0.2 mph SW0.3 kmh SW -- 30.36 in1028.1 mb 0.00 in0.0 mm 0.00 in0.0 mm 0.00 in0.0 mm
12:47 AM 61.2°F16.2°C 54.7°F12.6°C 79% 0.2 mph SSE0.3 kmh SSE -- 30.36 in1028.1 mb 0.00 in0.0 mm 0.00 in0.0 mm 0.00 in0.0 mm
12:46 AM 61.2°F16.2°C 54.7°F12.6°C 79% 0.2 mph NNE0.3 kmh NNE -- 30.36 in1028.1 mb 0.00 in0.0 mm 0.00 in0.0 mm 0.00 in0.0 mm
12:44 AM 61.3°F16.3°C 54.9°F12.7°C 79% 0.2 mph NNE0.3 kmh NNE -- 30.36 in1028.1 mb 0.00 in0.0 mm 0.00 in0.0 mm 0.00 in0.0 mm
12:43 AM 61.5°F16.4°C 54.9°F12.7°C 79% 0.2 mph NW0.3 kmh NW 1.3 mph2.1 kmh 30.36 in1028.1 mb 0.00 in0.0 mm 0.00 in0.0 mm 0.00 in0.0 mm
12:42 AM 61.5°F16.4°C 54.9°F12.7°C 79% 0.2 mph NW0.3 kmh NW 1.3 mph2.1 kmh 30.36 in1028.1 mb 0.00 in0.0 mm 0.00 in0.0 mm 0.00 in0.0 mm
12:41 AM 61.7°F16.5°C 55.0°F12.8°C 79% 0.2 mph SSE0.3 kmh SSE 1.6 mph2.6 kmh 30.36 in1028.1 mb 0.00 in0.0 mm 0.00 in0.0 mm 0.00 in0.0 mm
12:40 AM 61.7°F16.5°C 55.0°F12.8°C 79% 0.2 mph SSE0.3 kmh SSE 1.6 mph2.6 kmh 30.36 in1028.1 mb 0.00 in0.0 mm 0.00 in0.0 mm 0.00 in0.0 mm
12:39 AM 61.5°F16.4°C 54.9°F12.7°C 79% 0.2 mph SSE0.3 kmh SSE -- 30.36 in1028.1 mb 0.00 in0.0 mm 0.00 in0.0 mm 0.00 in0.0 mm
12:38 AM 61.5°F16.4°C 54.9°F12.7°C 79% 0.2 mph SSE0.3 kmh SSE -- 30.36 in1028.1 mb 0.00 in0.0 mm 0.00 in0.0 mm 0.00 in0.0 mm
12:37 AM 61.7°F16.5°C 55.0°F12.8°C 79% 0.4 mph W0.6 kmh W -- 30.36 in1028.1 mb 0.00 in0.0 mm 0.00 in0.0 mm 0.00 in0.0 mm
12:36 AM 61.7°F16.5°C 55.0°F12.8°C 79% 0.4 mph W0.6 kmh W -- 30.36 in1028.1 mb 0.00 in0.0 mm 0.00 in0.0 mm 0.00 in0.0 mm
12:35 AM 61.7°F16.5°C 55.0°F12.8°C 79% 0.4 mph NE0.6 kmh NE -- 30.36 in1028.1 mb 0.00 in0.0 mm 0.00 in0.0 mm 0.00 in0.0 mm
12:33 AM 61.9°F16.6°C 55.2°F12.9°C 79% 0.7 mph NNW1.1 kmh NNW -- 30.36 in1028.1 mb 0.00 in0.0 mm 0.00 in0.0 mm 0.00 in0.0 mm
12:32 AM 61.9°F16.6°C 55.2°F12.9°C 79% 0.7 mph NNW1.1 kmh NNW -- 30.36 in1028.1 mb 0.00 in0.0 mm 0.00 in0.0 mm 0.00 in0.0 mm
12:31 AM 62.1°F16.7°C 55.4°F13.0°C 79% 0.9 mph NNW1.4 kmh NNW -- 30.36 in1028.1 mb 0.00 in0.0 mm 0.00 in0.0 mm 0.00 in0.0 mm
12:30 AM 62.1°F16.7°C 55.4°F13.0°C 79% 0.9 mph NNW1.4 kmh NNW -- 30.36 in1028.1 mb 0.00 in0.0 mm 0.00 in0.0 mm 0.00 in0.0 mm
12:29 AM 61.9°F16.6°C 55.2°F12.9°C 79% 0.7 mph ENE1.1 kmh ENE -- 30.36 in1028.1 mb 0.00 in0.0 mm 0.00 in0.0 mm 0.00 in0.0 mm
12:28 AM 61.9°F16.6°C 55.2°F12.9°C 79% 0.7 mph ENE1.1 kmh ENE -- 30.36 in1028.1 mb 0.00 in0.0 mm 0.00 in0.0 mm 0.00 in0.0 mm
12:27 AM 62.1°F16.7°C 55.4°F13.0°C 79% 0.9 mph NW1.4 kmh NW 3.1 mph5.0 kmh 30.36 in1028.1 mb 0.00 in0.0 mm 0.00 in0.0 mm 0.00 in0.0 mm
12:26 AM 62.1°F16.7°C 55.4°F13.0°C 79% 0.9 mph NW1.4 kmh NW 3.1 mph5.0 kmh 30.36 in1028.1 mb 0.00 in0.0 mm 0.00 in0.0 mm 0.00 in0.0 mm
12:25 AM 62.1°F16.7°C 55.0°F12.8°C 78% 0.9 mph E1.4 kmh E 3.8 mph6.1 kmh 30.36 in1028.1 mb 0.00 in0.0 mm 0.00 in0.0 mm 0.00 in0.0 mm
12:24 AM 62.1°F16.7°C 55.0°F12.8°C 78% 0.7 mph NE1.1 kmh NE 2.5 mph4.0 kmh 30.36 in1028.1 mb 0.00 in0.0 mm 0.00 in0.0 mm 0.00 in0.0 mm
12:22 AM 62.2°F16.8°C 55.2°F12.9°C 78% 0.7 mph NE1.1 kmh NE 2.5 mph4.0 kmh 30.36 in1028.1 mb 0.00 in0.0 mm 0.00 in0.0 mm 0.00 in0.0 mm
12:21 AM 62.4°F16.9°C 55.4°F13.0°C 78% 0.7 mph W1.1 kmh W 2.2 mph3.5 kmh 30.36 in1028.1 mb 0.00 in0.0 mm 0.00 in0.0 mm 0.00 in0.0 mm
12:20 AM 62.4°F16.9°C 55.4°F13.0°C 78% 0.7 mph W1.1 kmh W 2.2 mph3.5 kmh 30.36 in1028.1 mb 0.00 in0.0 mm 0.00 in0.0 mm 0.00 in0.0 mm
12:19 AM 62.2°F16.8°C 55.2°F12.9°C 78% 0.9 mph S1.4 kmh S -- 30.36 in1028.1 mb 0.00 in0.0 mm 0.00 in0.0 mm 0.00 in0.0 mm
12:18 AM 62.2°F16.8°C 55.2°F12.9°C 78% 0.9 mph S1.4 kmh S -- 30.36 in1028.1 mb 0.00 in0.0 mm 0.00 in0.0 mm 0.00 in0.0 mm
12:17 AM 62.4°F16.9°C 55.4°F13.0°C 78% 0.9 mph ESE1.4 kmh ESE 2.2 mph3.5 kmh 30.36 in1028.1 mb 0.00 in0.0 mm 0.00 in0.0 mm 0.00 in0.0 mm
12:16 AM 62.4°F16.9°C 55.4°F13.0°C 78% 0.9 mph ESE1.4 kmh ESE 2.2 mph3.5 kmh 30.36 in1028.1 mb 0.00 in0.0 mm 0.00 in0.0 mm 0.00 in0.0 mm
12:15 AM 62.8°F17.1°C 55.8°F13.2°C 78% 0.9 mph WSW1.4 kmh WSW -- 30.36 in1028.1 mb 0.00 in0.0 mm 0.00 in0.0 mm 0.00 in0.0 mm
12:14 AM 62.8°F17.1°C 55.8°F13.2°C 78% 0.9 mph WSW1.4 kmh WSW -- 30.36 in1028.1 mb 0.00 in0.0 mm 0.00 in0.0 mm 0.00 in0.0 mm
12:13 AM 62.6°F17.0°C 55.6°F13.1°C 78% 1.1 mph W1.8 kmh W 1.6 mph2.6 kmh 30.36 in1028.1 mb 0.00 in0.0 mm 0.00 in0.0 mm 0.00 in0.0 mm
12:11 AM 62.8°F17.1°C 55.8°F13.2°C 78% 1.3 mph WSW2.1 kmh WSW 2.7 mph4.3 kmh 30.36 in1028.1 mb 0.00 in0.0 mm 0.00 in0.0 mm 0.00 in0.0 mm
12:10 AM 62.8°F17.1°C 55.8°F13.2°C 78% 1.3 mph WSW2.1 kmh WSW 2.7 mph4.3 kmh 30.36 in1028.1 mb 0.00 in0.0 mm 0.00 in0.0 mm 0.00 in0.0 mm
12:09 AM 63.0°F17.2°C 55.9°F13.3°C 78% 1.1 mph NW1.8 kmh NW -- 30.36 in1028.1 mb 0.00 in0.0 mm 0.00 in0.0 mm 0.00 in0.0 mm
12:08 AM 63.0°F17.2°C 55.9°F13.3°C 78% 1.1 mph NW1.8 kmh NW -- 30.35 in1027.8 mb 0.00 in0.0 mm 0.00 in0.0 mm 0.00 in0.0 mm
12:07 AM 63.0°F17.2°C 55.6°F13.1°C 77% 1.3 mph ESE2.1 kmh ESE 2.0 mph3.2 kmh 30.35 in1027.8 mb 0.00 in0.0 mm 0.00 in0.0 mm 0.00 in0.0 mm
12:06 AM 63.0°F17.2°C 55.6°F13.1°C 77% 1.3 mph ESE2.1 kmh ESE 2.0 mph3.2 kmh 30.35 in1027.8 mb 0.00 in0.0 mm 0.00 in0.0 mm 0.00 in0.0 mm
12:05 AM 63.0°F17.2°C 55.6°F13.1°C 77% 1.3 mph ENE2.1 kmh ENE 2.7 mph4.3 kmh 30.35 in1027.8 mb 0.00 in0.0 mm 0.00 in0.0 mm 0.00 in0.0 mm
12:04 AM 63.0°F17.2°C 55.6°F13.1°C 77% 1.3 mph ENE2.1 kmh ENE 2.7 mph4.3 kmh 30.35 in1027.8 mb 0.00 in0.0 mm 0.00 in0.0 mm 0.00 in0.0 mm
12:03 AM 63.1°F17.3°C 55.8°F13.2°C 77% 1.3 mph NW2.1 kmh NW 1.6 mph2.6 kmh 30.35 in1027.8 mb 0.00 in0.0 mm 0.00 in0.0 mm 0.00 in0.0 mm
12:02 AM 63.1°F17.3°C 55.8°F13.2°C 77% 1.3 mph NW2.1 kmh NW 1.8 mph2.9 kmh 30.35 in1027.8 mb 0.00 in0.0 mm 0.00 in0.0 mm 0.00 in0.0 mm
12:00 AM 63.3°F17.4°C 55.9°F13.3°C 77% 1.3 mph NW2.1 kmh NW 1.8 mph2.9 kmh 30.35 in1027.8 mb 0.00 in0.0 mm 0.00 in0.0 mm 0.00 in0.0 mm